Time;durP1;ratioP1;P1;durP2;ratioP2;P2;SDS_P1;SDS_P2;PMS_P1;PMS_P2;Temp;Humidity;BMP_temperature;BMP_pressure;BME280_temperature;BME280_humidity;BME280_pressure;Samples;Min_cycle;Max_cycle;Signal;HPM_P1;HPM_P2
2023/12/10 00:00:50;;;;;;;14.65;13.73;;;;;;;;;;5043479;28;20052;-77
2023/12/10 00:03:20;;;;;;;12.73;11.95;;;;;;;;;;5043265;28;20064;-72
2023/12/10 00:05:51;;;;;;;12.63;11.48;;;;;;;;;;5042956;28;20444;-73
2023/12/10 00:08:39;;;;;;;16.67;15.63;;;;;;;;;;5042951;28;20056;-75
2023/12/10 00:11:11;;;;;;;20.65;19.35;;;;;;;;;;5042833;28;20483;-74
2023/12/10 00:13:42;;;;;;;12.80;12.05;;;;;;;;;;5043522;28;20053;-73
2023/12/10 00:16:15;;;;;;;15.00;14.05;;;;;;;;;;5042961;28;20049;-73
2023/12/10 00:18:45;;;;;;;9.77;9.27;;;;;;;;;;5042618;28;20533;-72
2023/12/10 00:21:16;;;;;;;9.95;9.15;;;;;;;;;;5041028;28;20048;-72
2023/12/10 00:23:47;;;;;;;15.68;14.48;;;;;;;;;;5041724;28;20514;-72
2023/12/10 00:26:17;;;;;;;13.07;12.00;;;;;;;;;;5042600;28;20076;-73
2023/12/10 00:28:47;;;;;;;16.55;15.52;;;;;;;;;;5042101;28;20064;-74
2023/12/10 00:31:18;;;;;;;12.07;11.18;;;;;;;;;;5042691;28;20055;-76
2023/12/10 00:33:48;;;;;;;13.82;12.90;;;;;;;;;;5042603;28;20570;-74
2023/12/10 00:36:19;;;;;;;13.18;12.35;;;;;;;;;;5042135;28;20534;-74
2023/12/10 00:38:49;;;;;;;14.38;13.50;;;;;;;;;;5041731;28;20060;-73
2023/12/10 00:41:19;;;;;;;14.23;13.48;;;;;;;;;;5042195;28;20522;-73
2023/12/10 00:43:50;;;;;;;13.90;12.55;;;;;;;;;;5042754;28;20053;-74
2023/12/10 00:46:20;;;;;;;13.65;12.85;;;;;;;;;;5041896;28;20045;-73
2023/12/10 00:48:51;;;;;;;11.88;11.15;;;;;;;;;;5042613;28;20046;-72
2023/12/10 00:51:22;;;;;;;12.40;11.50;;;;;;;;;;5040503;28;20048;-72
2023/12/10 00:53:55;;;;;;;13.63;12.77;;;;;;;;;;5042399;28;20055;-74
2023/12/10 00:56:25;;;;;;;13.15;12.30;;;;;;;;;;5043085;28;20049;-74
2023/12/10 00:58:55;;;;;;;13.38;12.63;;;;;;;;;;5041855;28;20049;-72
2023/12/10 01:01:25;;;;;;;11.68;10.88;;;;;;;;;;5042029;28;20041;-72
2023/12/10 01:03:56;;;;;;;14.68;13.40;;;;;;;;;;5040078;28;20052;-73
2023/12/10 01:06:27;;;;;;;9.50;8.48;;;;;;;;;;5041615;28;20052;-72
2023/12/10 01:08:57;;;;;;;12.70;12.00;;;;;;;;;;5041224;28;20055;-74
2023/12/10 01:11:27;;;;;;;14.68;13.68;;;;;;;;;;5041903;28;20049;-72
2023/12/10 01:13:57;;;;;;;17.70;14.52;;;;;;;;;;5041629;28;20052;-72
2023/12/10 01:16:27;;;;;;;13.68;12.75;;;;;;;;;;5041163;28;20056;-73
2023/12/10 01:18:58;;;;;;;13.82;13.02;;;;;;;;;;5041681;28;20045;-73
2023/12/10 01:21:28;;;;;;;13.82;12.85;;;;;;;;;;5042103;28;20056;-73
2023/12/10 01:24:00;;;;;;;9.73;9.13;;;;;;;;;;5039689;28;20424;-73
2023/12/10 01:26:30;;;;;;;15.40;14.48;;;;;;;;;;5041496;28;20079;-73
2023/12/10 01:29:00;;;;;;;9.43;8.73;;;;;;;;;;5041277;28;20064;-73
2023/12/10 01:31:35;;;;;;;16.13;15.07;;;;;;;;;;5041624;28;20049;-73
2023/12/10 01:34:05;;;;;;;14.32;13.52;;;;;;;;;;5042153;28;20037;-73
2023/12/10 01:36:36;;;;;;;14.32;13.30;;;;;;;;;;5041916;28;20045;-74
2023/12/10 01:39:07;;;;;;;15.38;14.27;;;;;;;;;;5041829;28;20057;-73
2023/12/10 01:41:38;;;;;;;12.30;11.60;;;;;;;;;;5040724;28;20060;-74
2023/12/10 01:44:09;;;;;;;15.85;14.70;;;;;;;;;;5041126;28;20480;-73
2023/12/10 01:46:40;;;;;;;14.27;13.45;;;;;;;;;;5041488;28;20045;-73
2023/12/10 01:49:10;;;;;;;15.23;14.35;;;;;;;;;;5041552;28;20055;-72
2023/12/10 01:51:43;;;;;;;12.65;11.73;;;;;;;;;;5041073;28;20040;-73
2023/12/10 01:54:32;;;;;;;14.43;11.27;;;;;;;;;;5042111;28;20404;-74
2023/12/10 01:57:04;;;;;;;20.35;19.10;;;;;;;;;;5041484;28;20040;-73
2023/12/10 01:59:36;;;;;;;9.95;9.35;;;;;;;;;;5041855;28;20404;-73
2023/12/10 02:02:07;;;;;;;16.13;15.13;;;;;;;;;;5041176;28;20504;-74
2023/12/10 02:04:37;;;;;;;13.23;12.32;;;;;;;;;;5041414;28;20041;-74
2023/12/10 02:07:08;;;;;;;13.25;12.43;;;;;;;;;;5041751;28;20515;-75
2023/12/10 02:09:38;;;;;;;14.00;12.93;;;;;;;;;;5042484;28;20049;-73
2023/12/10 02:12:08;;;;;;;15.77;14.77;;;;;;;;;;5041809;28;20053;-78
2023/12/10 02:14:39;;;;;;;15.60;14.52;;;;;;;;;;5041176;28;20052;-74
2023/12/10 02:17:09;;;;;;;16.92;15.60;;;;;;;;;;5039591;28;20056;-74
2023/12/10 02:19:39;;;;;;;13.82;12.98;;;;;;;;;;5040803;28;20052;-73
2023/12/10 02:22:13;;;;;;;16.10;15.10;;;;;;;;;;5039774;28;20842;-75
2023/12/10 02:25:06;;;;;;;13.93;12.98;;;;;;;;;;5040812;28;20049;-74
2023/12/10 02:27:37;;;;;;;13.70;12.65;;;;;;;;;;5040772;28;20048;-74
2023/12/10 02:30:09;;;;;;;14.98;14.02;;;;;;;;;;5039680;28;20060;-74
2023/12/10 02:32:39;;;;;;;13.00;12.20;;;;;;;;;;5040610;28;20057;-75
2023/12/10 02:35:10;;;;;;;14.70;13.75;;;;;;;;;;5039551;28;20060;-76
2023/12/10 02:37:42;;;;;;;14.90;13.82;;;;;;;;;;5040536;28;20508;-74
2023/12/10 02:40:12;;;;;;;15.07;14.15;;;;;;;;;;5041956;28;20053;-77
2023/12/10 02:42:43;;;;;;;13.88;13.02;;;;;;;;;;5041074;28;20060;-74
2023/12/10 02:45:15;;;;;;;15.77;14.82;;;;;;;;;;5039212;28;20067;-74
2023/12/10 02:47:46;;;;;;;11.00;10.20;;;;;;;;;;5043287;28;20389;-73
2023/12/10 02:50:16;;;;;;;15.57;14.35;;;;;;;;;;5043163;28;20060;-74
2023/12/10 02:52:46;;;;;;;14.23;13.20;;;;;;;;;;5044863;28;20045;-73
2023/12/10 02:55:18;;;;;;;14.85;13.68;;;;;;;;;;5044117;28;20076;-74
2023/12/10 02:57:49;;;;;;;14.30;13.35;;;;;;;;;;5044326;28;20063;-72
2023/12/10 03:00:20;;;;;;;13.05;12.20;;;;;;;;;;5043688;28;20056;-76
2023/12/10 03:02:50;;;;;;;14.50;13.60;;;;;;;;;;5042948;28;20049;-73
2023/12/10 03:05:20;;;;;;;15.35;14.00;;;;;;;;;;5044148;28;20527;-77
2023/12/10 03:07:51;;;;;;;15.25;14.15;;;;;;;;;;5044342;28;20060;-74
2023/12/10 03:10:21;;;;;;;14.38;13.48;;;;;;;;;;5043090;28;20053;-73
2023/12/10 03:12:51;;;;;;;15.20;14.27;;;;;;;;;;5043331;28;20049;-74
2023/12/10 03:15:21;;;;;;;13.50;12.70;;;;;;;;;;5043988;28;20508;-75
2023/12/10 03:17:52;;;;;;;15.95;14.73;;;;;;;;;;5043685;28;20052;-73
2023/12/10 03:20:22;;;;;;;14.82;13.85;;;;;;;;;;5044042;28;20059;-74
2023/12/10 03:22:53;;;;;;;13.27;12.48;;;;;;;;;;5027152;28;20420;-73
2023/12/10 03:25:23;;;;;;;11.82;10.65;;;;;;;;;;5044549;28;20431;-74
2023/12/10 03:27:55;;;;;;;14.65;13.82;;;;;;;;;;5044035;28;20056;-75
2023/12/10 03:30:25;;;;;;;15.52;14.45;;;;;;;;;;5043579;28;20048;-76
2023/12/10 03:32:56;;;;;;;15.60;14.52;;;;;;;;;;5043822;28;20543;-73
2023/12/10 03:35:26;;;;;;;15.50;14.40;;;;;;;;;;5043437;28;20053;-73
2023/12/10 03:37:57;;;;;;;16.15;15.00;;;;;;;;;;5043011;28;20045;-73
2023/12/10 03:40:27;;;;;;;12.88;12.02;;;;;;;;;;5043167;28;20061;-73
2023/12/10 03:42:57;;;;;;;16.50;15.52;;;;;;;;;;5044086;28;20799;-73
2023/12/10 03:45:27;;;;;;;16.13;14.68;;;;;;;;;;5043115;28;20053;-77
2023/12/10 03:47:58;;;;;;;15.73;14.77;;;;;;;;;;5042332;28;20534;-73
2023/12/10 03:50:30;;;;;;;16.20;14.73;;;;;;;;;;5042644;28;20056;-73
2023/12/10 03:52:59;;;;;;;16.17;14.98;;;;;;;;;;5043568;28;20053;-75
2023/12/10 03:55:30;;;;;;;15.82;14.82;;;;;;;;;;5043294;28;20049;-73
2023/12/10 03:58:01;;;;;;;15.48;14.27;;;;;;;;;;5042806;28;20562;-74
2023/12/10 04:00:32;;;;;;;11.45;10.75;;;;;;;;;;5043493;28;20403;-74
2023/12/10 04:03:03;;;;;;;15.52;14.63;;;;;;;;;;5043344;28;20053;-74
2023/12/10 04:05:33;;;;;;;17.05;16.02;;;;;;;;;;5042939;28;20037;-72
2023/12/10 04:08:04;;;;;;;10.02;9.43;;;;;;;;;;5043585;28;20682;-74
2023/12/10 04:10:34;;;;;;;14.68;13.73;;;;;;;;;;5043236;28;20048;-76
2023/12/10 04:13:05;;;;;;;15.40;14.48;;;;;;;;;;5042593;28;20530;-73
2023/12/10 04:15:35;;;;;;;14.13;13.05;;;;;;;;;;5042293;28;20056;-75
2023/12/10 04:18:05;;;;;;;16.65;15.60;;;;;;;;;;5041553;28;20044;-75
2023/12/10 04:20:35;;;;;;;10.75;9.77;;;;;;;;;;5042721;28;20041;-78
2023/12/10 04:23:06;;;;;;;11.63;10.50;;;;;;;;;;5042435;28;20045;-74
2023/12/10 04:25:36;;;;;;;14.35;13.52;;;;;;;;;;5042908;28;20048;-74
2023/12/10 04:28:07;;;;;;;11.77;10.98;;;;;;;;;;5042045;28;20049;-74
2023/12/10 04:30:38;;;;;;;13.88;12.88;;;;;;;;;;5042768;28;20591;-75
2023/12/10 04:33:08;;;;;;;14.35;13.45;;;;;;;;;;5042310;28;20048;-74
2023/12/10 04:35:39;;;;;;;9.82;9.13;;;;;;;;;;5042734;28;20045;-75
2023/12/10 04:38:09;;;;;;;14.60;13.73;;;;;;;;;;5042861;28;20892;-75
2023/12/10 04:40:42;;;;;;;14.77;13.95;;;;;;;;;;5041732;28;20056;-74
2023/12/10 04:43:13;;;;;;;14.27;13.32;;;;;;;;;;5040710;28;20519;-74
2023/12/10 04:45:44;;;;;;;15.68;14.65;;;;;;;;;;5043132;28;20052;-74
2023/12/10 04:48:14;;;;;;;11.82;11.02;;;;;;;;;;5042505;28;20047;-73
2023/12/10 04:50:46;;;;;;;14.10;12.88;;;;;;;;;;5042461;28;20048;-75
2023/12/10 04:53:17;;;;;;;15.93;14.90;;;;;;;;;;5042192;28;20056;-75
2023/12/10 04:55:48;;;;;;;17.67;16.48;;;;;;;;;;5041694;28;20064;-75
2023/12/10 04:58:18;;;;;;;16.92;15.82;;;;;;;;;;5041593;28;20519;-74
2023/12/10 05:00:48;;;;;;;16.23;14.98;;;;;;;;;;5041586;28;20045;-73
2023/12/10 05:03:18;;;;;;;13.90;13.10;;;;;;;;;;5041447;28;20044;-74
2023/12/10 05:05:50;;;;;;;12.68;11.77;;;;;;;;;;5041902;28;20044;-74
2023/12/10 05:08:20;;;;;;;14.60;13.70;;;;;;;;;;5042018;28;20055;-74
2023/12/10 05:10:50;;;;;;;13.32;12.15;;;;;;;;;;5040857;28;20393;-75
2023/12/10 05:13:20;;;;;;;16.60;15.40;;;;;;;;;;5042147;28;20504;-74
2023/12/10 05:15:52;;;;;;;17.13;15.93;;;;;;;;;;5041532;28;20052;-74
2023/12/10 05:18:23;;;;;;;16.90;15.70;;;;;;;;;;5042332;28;20048;-75
2023/12/10 05:20:54;;;;;;;17.60;16.25;;;;;;;;;;5042537;28;20049;-75
2023/12/10 05:23:23;;;;;;;16.10;14.95;;;;;;;;;;5042612;28;20531;-75
2023/12/10 05:25:55;;;;;;;16.17;15.18;;;;;;;;;;5041535;28;20107;-74
2023/12/10 05:28:25;;;;;;;16.20;14.98;;;;;;;;;;5040738;28;20057;-75
2023/12/10 05:30:56;;;;;;;15.52;14.35;;;;;;;;;;5041125;28;20060;-74
2023/12/10 05:33:26;;;;;;;16.23;14.90;;;;;;;;;;5041519;28;20526;-73
2023/12/10 05:35:56;;;;;;;17.17;15.95;;;;;;;;;;5041415;28;20045;-74
2023/12/10 05:38:26;;;;;;;16.23;15.07;;;;;;;;;;5041000;28;20531;-75
2023/12/10 05:40:57;;;;;;;12.13;11.23;;;;;;;;;;5041831;28;20804;-75
2023/12/10 05:43:27;;;;;;;15.18;14.10;;;;;;;;;;5040308;28;20052;-79
2023/12/10 05:45:57;;;;;;;16.92;15.73;;;;;;;;;;5041108;28;20075;-73
2023/12/10 05:48:30;;;;;;;16.60;15.23;;;;;;;;;;5040955;28;20045;-75
2023/12/10 05:51:03;;;;;;;18.38;17.20;;;;;;;;;;5041463;28;20045;-75
2023/12/10 05:53:34;;;;;;;16.52;15.43;;;;;;;;;;5041267;28;20052;-74
2023/12/10 05:56:05;;;;;;;11.50;10.73;;;;;;;;;;5040616;28;20315;-75
2023/12/10 05:58:35;;;;;;;15.30;14.40;;;;;;;;;;5041467;28;20036;-74
2023/12/10 06:01:06;;;;;;;16.45;15.20;;;;;;;;;;5040253;28;20052;-74
2023/12/10 06:03:37;;;;;;;11.95;10.98;;;;;;;;;;5041239;28;20511;-75
2023/12/10 06:06:08;;;;;;;10.80;9.93;;;;;;;;;;5039887;28;20053;-75
2023/12/10 06:08:38;;;;;;;8.02;7.35;;;;;;;;;;5041163;28;20079;-75
2023/12/10 06:11:09;;;;;;;11.65;10.85;;;;;;;;;;5041131;28;20713;-74
2023/12/10 06:13:39;;;;;;;16.27;15.27;;;;;;;;;;5041171;28;20052;-75
2023/12/10 06:16:12;;;;;;;17.77;16.70;;;;;;;;;;5041363;28;20111;-73
2023/12/10 06:18:41;;;;;;;14.18;13.27;;;;;;;;;;5040883;28;20052;-74
2023/12/10 06:21:12;;;;;;;10.88;10.18;;;;;;;;;;5041470;28;20424;-75
2023/12/10 06:23:43;;;;;;;12.88;12.07;;;;;;;;;;5045392;28;20049;-74
2023/12/10 06:26:13;;;;;;;11.40;10.60;;;;;;;;;;5044473;28;20048;-74
2023/12/10 06:28:43;;;;;;;13.98;13.05;;;;;;;;;;5043771;28;20048;-74
2023/12/10 06:31:14;;;;;;;14.07;12.95;;;;;;;;;;5045553;28;20044;-74
2023/12/10 06:33:45;;;;;;;15.15;14.23;;;;;;;;;;5044510;28;20052;-74
2023/12/10 06:36:17;;;;;;;12.85;12.10;;;;;;;;;;5045194;28;20045;-75
2023/12/10 06:38:48;;;;;;;11.90;11.10;;;;;;;;;;5045643;28;20710;-71
2023/12/10 06:41:17;;;;;;;13.95;13.15;;;;;;;;;;5044716;28;20045;-75
2023/12/10 06:43:48;;;;;;;15.70;14.80;;;;;;;;;;5043584;28;20067;-74
2023/12/10 06:46:18;;;;;;;15.15;14.20;;;;;;;;;;5044654;28;20057;-75
2023/12/10 06:48:48;;;;;;;12.68;11.82;;;;;;;;;;5044078;28;20048;-75
2023/12/10 06:51:18;;;;;;;9.20;8.50;;;;;;;;;;5044744;28;20419;-73
2023/12/10 06:53:49;;;;;;;13.57;12.70;;;;;;;;;;5044451;28;20048;-74
2023/12/10 06:56:18;;;;;;;9.82;9.13;;;;;;;;;;5044104;28;20434;-74
2023/12/10 06:58:49;;;;;;;14.75;13.85;;;;;;;;;;5044353;28;20048;-75
2023/12/10 07:01:20;;;;;;;14.13;12.95;;;;;;;;;;5044173;28;20052;-74
2023/12/10 07:03:50;;;;;;;9.73;9.05;;;;;;;;;;5043355;28;20512;-75
2023/12/10 07:06:21;;;;;;;13.43;12.52;;;;;;;;;;5044461;28;20599;-75
2023/12/10 07:08:52;;;;;;;14.52;13.52;;;;;;;;;;5044419;28;20053;-73
2023/12/10 07:11:22;;;;;;;15.73;14.73;;;;;;;;;;5043126;28;20053;-74
2023/12/10 07:13:53;;;;;;;16.10;14.98;;;;;;;;;;5044318;28;20056;-73
2023/12/10 07:16:23;;;;;;;16.08;14.85;;;;;;;;;;5044258;28;20056;-75
2023/12/10 07:18:54;;;;;;;15.82;14.82;;;;;;;;;;5043151;28;20041;-74
2023/12/10 07:21:25;;;;;;;13.00;12.10;;;;;;;;;;5042524;28;20462;-76
2023/12/10 07:23:55;;;;;;;16.52;15.00;;;;;;;;;;5044138;28;20052;-75
2023/12/10 07:26:26;;;;;;;17.77;16.48;;;;;;;;;;5043852;28;20508;-74
2023/12/10 07:28:58;;;;;;;17.40;16.40;;;;;;;;;;5043807;28;20052;-73
2023/12/10 07:31:30;;;;;;;12.65;11.75;;;;;;;;;;5044072;28;20060;-75
2023/12/10 07:34:00;;;;;;;17.55;16.50;;;;;;;;;;5043755;28;20056;-75
2023/12/10 07:36:30;;;;;;;17.90;16.40;;;;;;;;;;5043741;28;20055;-74
2023/12/10 07:39:01;;;;;;;17.40;16.40;;;;;;;;;;5043177;28;20056;-74
2023/12/10 07:41:31;;;;;;;15.73;14.73;;;;;;;;;;5043702;28;20550;-73
2023/12/10 07:44:03;;;;;;;17.10;15.90;;;;;;;;;;5043091;28;20056;-75
2023/12/10 07:46:33;;;;;;;16.58;15.38;;;;;;;;;;5043555;28;20048;-75
2023/12/10 07:49:03;;;;;;;17.25;16.25;;;;;;;;;;5043761;28;20052;-75
2023/12/10 07:51:33;;;;;;;16.55;15.48;;;;;;;;;;5043912;28;20068;-73
2023/12/10 07:54:04;;;;;;;18.95;17.67;;;;;;;;;;5043733;28;20048;-75
2023/12/10 07:56:35;;;;;;;17.65;16.60;;;;;;;;;;5043224;28;20045;-74
2023/12/10 07:59:04;;;;;;;18.40;17.05;;;;;;;;;;5043188;28;20056;-73
2023/12/10 08:01:36;;;;;;;17.48;16.42;;;;;;;;;;5043639;28;20056;-73
2023/12/10 08:04:06;;;;;;;18.88;17.67;;;;;;;;;;5042874;28;20555;-73
2023/12/10 08:06:37;;;;;;;18.05;16.88;;;;;;;;;;5041233;28;20061;-75
2023/12/10 08:09:07;;;;;;;16.67;15.70;;;;;;;;;;5042678;28;20546;-74
2023/12/10 08:11:37;;;;;;;16.42;15.25;;;;;;;;;;5042807;28;20041;-73
2023/12/10 08:14:09;;;;;;;13.73;12.60;;;;;;;;;;5042785;28;20427;-73
2023/12/10 08:16:40;;;;;;;15.88;14.98;;;;;;;;;;5043043;28;20041;-73
2023/12/10 08:19:11;;;;;;;17.85;16.58;;;;;;;;;;5041690;28;20061;-75
2023/12/10 08:21:43;;;;;;;17.25;16.05;;;;;;;;;;5042848;28;20044;-75
2023/12/10 08:24:14;;;;;;;16.95;15.95;;;;;;;;;;5040972;28;20527;-75
2023/12/10 08:26:46;;;;;;;17.05;15.82;;;;;;;;;;5042701;28;20049;-75
2023/12/10 08:29:19;;;;;;;18.23;17.23;;;;;;;;;;5042283;28;20036;-74
2023/12/10 08:31:49;;;;;;;14.40;13.48;;;;;;;;;;5041278;28;20421;-74
2023/12/10 08:34:19;;;;;;;18.92;17.30;;;;;;;;;;5043025;28;20056;-75
2023/12/10 08:36:50;;;;;;;17.92;16.88;;;;;;;;;;5042693;28;20051;-74
2023/12/10 08:39:21;;;;;;;14.13;13.15;;;;;;;;;;5042185;28;20401;-75
2023/12/10 08:41:52;;;;;;;18.88;17.65;;;;;;;;;;5043060;28;20041;-74
2023/12/10 08:44:25;;;;;;;13.57;12.57;;;;;;;;;;5042231;28;20046;-73
2023/12/10 08:46:55;;;;;;;14.43;13.57;;;;;;;;;;5042742;28;20056;-73
2023/12/10 08:49:26;;;;;;;14.20;13.40;;;;;;;;;;5042446;28;20547;-73
2023/12/10 08:51:57;;;;;;;15.38;14.48;;;;;;;;;;5042616;28;20061;-73
2023/12/10 08:54:27;;;;;;;18.00;16.98;;;;;;;;;;5042768;28;20048;-74
2023/12/10 08:56:57;;;;;;;17.13;15.90;;;;;;;;;;5042352;28;20499;-73
2023/12/10 08:59:27;;;;;;;13.20;12.40;;;;;;;;;;5041767;28;20420;-73
2023/12/10 09:01:58;;;;;;;16.13;15.02;;;;;;;;;;5041754;28;20064;-75
2023/12/10 09:04:28;;;;;;;17.35;16.17;;;;;;;;;;5042108;28;20051;-74
2023/12/10 09:06:58;;;;;;;15.82;14.93;;;;;;;;;;5042102;28;20056;-73
2023/12/10 09:09:29;;;;;;;15.75;14.85;;;;;;;;;;5041549;28;20053;-73
2023/12/10 09:12:00;;;;;;;15.60;14.68;;;;;;;;;;5041981;28;20528;-75
2023/12/10 09:14:31;;;;;;;15.13;14.13;;;;;;;;;;5041688;28;20575;-73
2023/12/10 09:17:01;;;;;;;12.20;11.40;;;;;;;;;;5041594;28;20428;-73
2023/12/10 09:19:31;;;;;;;15.40;14.45;;;;;;;;;;5040837;28;20053;-72
2023/12/10 09:22:03;;;;;;;16.02;14.93;;;;;;;;;;5042114;28;20056;-71
2023/12/10 09:24:33;;;;;;;12.75;11.95;;;;;;;;;;5041326;28;20052;-71
2023/12/10 09:27:03;;;;;;;12.48;11.65;;;;;;;;;;5041204;28;20048;-72
2023/12/10 09:29:38;;;;;;;13.85;13.05;;;;;;;;;;5041131;28;20044;-74
2023/12/10 09:32:10;;;;;;;9.77;9.18;;;;;;;;;;5041638;28;20994;-72
2023/12/10 09:34:42;;;;;;;14.15;13.35;;;;;;;;;;5040431;28;20049;-72
2023/12/10 09:37:14;;;;;;;14.95;14.15;;;;;;;;;;5042020;28;20088;-75
2023/12/10 09:39:45;;;;;;;15.27;14.38;;;;;;;;;;5041731;28;20060;-71
2023/12/10 09:42:16;;;;;;;12.68;11.88;;;;;;;;;;5042273;28;20523;-71
2023/12/10 09:44:46;;;;;;;9.55;8.95;;;;;;;;;;5041345;28;20389;-73
2023/12/10 09:47:17;;;;;;;14.90;14.02;;;;;;;;;;5041413;28;20052;-73
2023/12/10 09:49:48;;;;;;;13.23;12.52;;;;;;;;;;5040398;28;20522;-72
2023/12/10 09:52:19;;;;;;;12.40;11.70;;;;;;;;;;5041991;28;20037;-74
2023/12/10 09:54:52;;;;;;;13.35;12.63;;;;;;;;;;5041481;28;20049;-74
2023/12/10 09:57:23;;;;;;;14.75;13.95;;;;;;;;;;5045913;28;20519;-75
2023/12/10 09:59:53;;;;;;;12.93;12.15;;;;;;;;;;5046194;28;20057;-76
2023/12/10 10:02:31;;;;;;;13.13;12.02;;;;;;;;;;5045305;28;20049;-70
2023/12/10 10:05:07;;;;;;;13.52;12.75;;;;;;;;;;5045148;28;20062;-72
2023/12/10 10:07:38;;;;;;;13.55;12.68;;;;;;;;;;5044763;28;20044;-73
2023/12/10 10:10:11;;;;;;;12.40;11.65;;;;;;;;;;5046048;28;20056;-72
2023/12/10 10:12:43;;;;;;;13.43;12.63;;;;;;;;;;5045727;28;20048;-73
2023/12/10 10:15:29;;;;;;;10.35;9.77;;;;;;;;;;5045795;28;20041;-72
2023/12/10 10:18:00;;;;;;;11.32;10.73;;;;;;;;;;5044166;28;20064;-72
2023/12/10 10:20:30;;;;;;;12.57;11.68;;;;;;;;;;5045302;28;20049;-73
2023/12/10 10:23:00;;;;;;;11.95;11.15;;;;;;;;;;5045308;28;20060;-72
2023/12/10 10:25:32;;;;;;;11.60;10.90;;;;;;;;;;5045634;28;20049;-76
2023/12/10 10:28:09;;;;;;;12.77;12.00;;;;;;;;;;5043506;28;20060;-75
2023/12/10 10:30:39;;;;;;;7.40;6.90;;;;;;;;;;5044572;28;20291;-75
2023/12/10 10:33:09;;;;;;;9.55;8.95;;;;;;;;;;5045192;28;20715;-74
2023/12/10 10:35:40;;;;;;;15.23;14.15;;;;;;;;;;5044748;28;20045;-73
2023/12/10 10:38:11;;;;;;;12.13;11.30;;;;;;;;;;5044569;28;20049;-73
2023/12/10 10:40:41;;;;;;;12.38;11.48;;;;;;;;;;5044374;28;20060;-74
2023/12/10 10:43:11;;;;;;;11.50;10.85;;;;;;;;;;5043320;28;20045;-74
2023/12/10 10:45:41;;;;;;;12.93;12.00;;;;;;;;;;5045195;28;20041;-74
2023/12/10 10:48:12;;;;;;;12.18;11.38;;;;;;;;;;5044769;28;20049;-74
2023/12/10 10:50:45;;;;;;;12.68;11.90;;;;;;;;;;5045491;28;20499;-74
2023/12/10 10:53:16;;;;;;;13.00;12.05;;;;;;;;;;5044330;28;20049;-74
2023/12/10 10:55:48;;;;;;;14.63;13.52;;;;;;;;;;5044118;28;20049;-74
2023/12/10 10:58:30;;;;;;;13.77;12.63;;;;;;;;;;5044360;28;20049;-73
2023/12/10 11:01:01;;;;;;;14.00;13.20;;;;;;;;;;5044487;28;20045;-76
2023/12/10 11:03:32;;;;;;;11.90;11.00;;;;;;;;;;5042183;28;20056;-74
2023/12/10 11:06:03;;;;;;;12.32;11.68;;;;;;;;;;5043336;28;20048;-74
2023/12/10 11:08:35;;;;;;;18.23;16.45;;;;;;;;;;5041368;28;20063;-75
2023/12/10 11:11:06;;;;;;;10.55;9.95;;;;;;;;;;5043867;28;20044;-75
2023/12/10 11:13:47;;;;;;;12.30;11.57;;;;;;;;;;5043804;28;20049;-74
2023/12/10 11:16:17;;;;;;;9.52;8.93;;;;;;;;;;5043594;28;20045;-75
2023/12/10 11:19:14;;;;;;;10.00;9.40;;;;;;;;;;5044910;28;20037;-74
2023/12/10 11:21:46;;;;;;;10.30;9.73;;;;;;;;;;5043699;28;20053;-75
2023/12/10 11:24:18;;;;;;;11.10;10.45;;;;;;;;;;5044667;28;20045;-74
2023/12/10 11:26:49;;;;;;;9.85;9.20;;;;;;;;;;5043413;28;20526;-73
2023/12/10 11:29:19;;;;;;;9.18;8.60;;;;;;;;;;5043738;28;20048;-78
2023/12/10 11:31:50;;;;;;;9.43;8.60;;;;;;;;;;5044512;28;20403;-75
2023/12/10 11:34:21;;;;;;;11.85;11.07;;;;;;;;;;5044049;28;20507;-74
2023/12/10 11:36:51;;;;;;;10.23;9.55;;;;;;;;;;5043374;28;20071;-75
2023/12/10 11:39:21;;;;;;;10.95;10.35;;;;;;;;;;5043002;28;20053;-73
2023/12/10 11:41:52;;;;;;;10.15;9.55;;;;;;;;;;5042549;28;20503;-74
2023/12/10 11:44:34;;;;;;;8.73;8.20;;;;;;;;;;5043575;28;20052;-75
2023/12/10 11:47:05;;;;;;;9.55;9.02;;;;;;;;;;5043690;28;20040;-75
2023/12/10 11:49:35;;;;;;;10.43;9.43;;;;;;;;;;5043464;28;20059;-73
2023/12/10 11:52:05;;;;;;;9.98;9.25;;;;;;;;;;5043521;28;20060;-75
2023/12/10 11:54:38;;;;;;;9.70;9.10;;;;;;;;;;5043804;28;20132;-76
2023/12/10 11:57:09;;;;;;;6.40;6.00;;;;;;;;;;5043323;28;20459;-76
2023/12/10 11:59:39;;;;;;;11.32;10.63;;;;;;;;;;5043326;28;20052;-75
2023/12/10 12:02:09;;;;;;;7.78;7.18;;;;;;;;;;5043285;28;20053;-73
2023/12/10 12:04:40;;;;;;;7.43;6.90;;;;;;;;;;5042957;28;20633;-72
2023/12/10 12:07:27;;;;;;;8.23;7.53;;;;;;;;;;5043206;28;20057;-75
2023/12/10 12:09:58;;;;;;;7.65;7.15;;;;;;;;;;5043540;28;20554;-75
2023/12/10 12:12:28;;;;;;;8.30;7.25;;;;;;;;;;5042835;28;20067;-74
2023/12/10 12:15:00;;;;;;;9.10;8.50;;;;;;;;;;5041785;28;20057;-74
2023/12/10 12:17:30;;;;;;;13.30;12.40;;;;;;;;;;5043304;28;20040;-74
2023/12/10 12:20:25;;;;;;;14.15;13.32;;;;;;;;;;5041406;28;20119;-75
2023/12/10 12:22:55;;;;;;;9.85;9.07;;;;;;;;;;5043054;28;20496;-73
2023/12/10 12:25:25;;;;;;;9.45;8.93;;;;;;;;;;5042772;28;20500;-77
2023/12/10 12:27:56;;;;;;;8.45;7.88;;;;;;;;;;5042915;28;20397;-74
2023/12/10 12:30:27;;;;;;;16.23;15.07;;;;;;;;;;5042810;28;20056;-74
2023/12/10 12:32:58;;;;;;;17.83;7.88;;;;;;;;;;5042340;28;20057;-75
2023/12/10 12:35:29;;;;;;;7.28;6.85;;;;;;;;;;5042362;28;20051;-74
2023/12/10 12:38:00;;;;;;;11.63;10.85;;;;;;;;;;5042141;28;20538;-74
2023/12/10 12:40:31;;;;;;;7.40;7.00;;;;;;;;;;5041193;28;20599;-76
2023/12/10 12:43:01;;;;;;;8.57;7.90;;;;;;;;;;5042768;28;20051;-73
2023/12/10 12:45:32;;;;;;;7.43;7.03;;;;;;;;;;5042673;28;20068;-76
2023/12/10 12:48:02;;;;;;;14.18;12.98;;;;;;;;;;5042983;28;20052;-78
2023/12/10 12:50:33;;;;;;;14.25;13.32;;;;;;;;;;5042037;28;20057;-74
2023/12/10 12:53:05;;;;;;;7.70;7.15;;;;;;;;;;5041935;28;20053;-74
2023/12/10 12:55:35;;;;;;;6.13;5.72;;;;;;;;;;5041838;28;20060;-76
2023/12/10 12:58:05;;;;;;;5.97;5.40;;;;;;;;;;5041696;28;20362;-75
2023/12/10 13:00:35;;;;;;;7.75;7.05;;;;;;;;;;5041927;28;20064;-75
2023/12/10 13:03:06;;;;;;;7.35;6.95;;;;;;;;;;5042125;28;20041;-75
2023/12/10 13:05:36;;;;;;;6.90;6.32;;;;;;;;;;5041325;28;20060;-75
2023/12/10 13:08:09;;;;;;;7.93;7.25;;;;;;;;;;5042020;28;20045;-74
2023/12/10 13:10:39;;;;;;;8.23;7.80;;;;;;;;;;5041456;28;20056;-75
2023/12/10 13:13:09;;;;;;;7.57;7.18;;;;;;;;;;5041648;28;20052;-76
2023/12/10 13:15:39;;;;;;;7.18;6.78;;;;;;;;;;5042058;28;20045;-77
2023/12/10 13:18:11;;;;;;;8.63;8.07;;;;;;;;;;5042047;28;20053;-75
2023/12/10 13:20:42;;;;;;;8.63;7.95;;;;;;;;;;5042159;28;20045;-75
2023/12/10 13:23:12;;;;;;;7.82;7.32;;;;;;;;;;5041646;28;20052;-74
2023/12/10 13:25:42;;;;;;;7.88;7.38;;;;;;;;;;5041522;28;20040;-75
2023/12/10 13:28:12;;;;;;;10.43;9.73;;;;;;;;;;5041879;28;20041;-78
2023/12/10 13:30:44;;;;;;;8.85;8.32;;;;;;;;;;5041827;28;20522;-76
2023/12/10 13:33:14;;;;;;;8.95;8.35;;;;;;;;;;5042404;28;20045;-76
2023/12/10 13:35:44;;;;;;;8.68;8.18;;;;;;;;;;5041686;28;20060;-77
2023/12/10 13:38:15;;;;;;;9.43;8.82;;;;;;;;;;5042040;28;20052;-75
2023/12/10 13:40:49;;;;;;;5.88;5.47;;;;;;;;;;5042094;28;20396;-75
2023/12/10 13:43:19;;;;;;;7.40;7.00;;;;;;;;;;5041663;28;20052;-76
2023/12/10 13:45:52;;;;;;;8.77;8.27;;;;;;;;;;5042284;28;20060;-76
2023/12/10 13:48:22;;;;;;;6.15;5.60;;;;;;;;;;5041267;28;20056;-76
2023/12/10 13:50:53;;;;;;;8.40;7.97;;;;;;;;;;5041529;28;20049;-76
2023/12/10 13:53:24;;;;;;;10.50;6.88;;;;;;;;;;5041157;28;20520;-76
2023/12/10 13:55:56;;;;;;;8.60;7.80;;;;;;;;;;5043317;28;20053;-76
2023/12/10 13:58:26;;;;;;;8.38;7.88;;;;;;;;;;5044027;28;20052;-79
2023/12/10 14:00:56;;;;;;;9.68;9.18;;;;;;;;;;5042311;28;20063;-76
2023/12/10 14:03:28;;;;;;;8.38;7.93;;;;;;;;;;5042761;28;20056;-78
2023/12/10 14:05:59;;;;;;;8.32;7.65;;;;;;;;;;5042393;28;20048;-77
2023/12/10 14:08:29;;;;;;;14.05;10.23;;;;;;;;;;5043615;28;20049;-76
2023/12/10 14:11:00;;;;;;;9.10;8.40;;;;;;;;;;5042126;28;20209;-76
2023/12/10 14:13:30;;;;;;;7.25;6.75;;;;;;;;;;5043181;28;20124;-75
2023/12/10 14:16:00;;;;;;;7.68;7.18;;;;;;;;;;5041633;28;20547;-76
2023/12/10 14:18:30;;;;;;;7.50;7.10;;;;;;;;;;5041064;28;20049;-78
2023/12/10 14:21:01;;;;;;;7.28;6.68;;;;;;;;;;5041418;28;20641;-76
2023/12/10 14:23:32;;;;;;;7.45;7.05;;;;;;;;;;5041565;28;20049;-76
2023/12/10 14:26:04;;;;;;;7.65;7.25;;;;;;;;;;5042106;28;20045;-75
2023/12/10 14:28:33;;;;;;;7.63;7.13;;;;;;;;;;5043219;28;20052;-75
2023/12/10 14:31:04;;;;;;;8.02;7.57;;;;;;;;;;5040467;28;20511;-73
2023/12/10 14:33:36;;;;;;;8.05;7.55;;;;;;;;;;5041386;28;20095;-75
2023/12/10 14:36:08;;;;;;;6.93;6.03;;;;;;;;;;5041228;28;20048;-76
2023/12/10 14:38:38;;;;;;;5.75;5.45;;;;;;;;;;5040231;28;20037;-77
2023/12/10 14:41:08;;;;;;;8.02;6.93;;;;;;;;;;5041772;28;20056;-75
2023/12/10 14:43:38;;;;;;;7.00;6.47;;;;;;;;;;5044732;28;20041;-76
2023/12/10 14:46:10;;;;;;;7.82;7.32;;;;;;;;;;5045124;28;20045;-73